• Join FlightAware (Why Join?)
  • Login
  • US Flag 
05:16AM EDT


 

Airport Tracker/Info


-or-


 

Live Flight TrackerFlight Track Log ✈ PDT4314 ✈ 29-Aug-2013 ✈ KBGM - KPHL

Flight Track Log - Related Links

Times and Time Zones

All times are in EDT time to prevent confusion due to time zone crossing. See the PDT4314 flight status page for this flight to view local times or setup timezone preferences in your user account.

Time Position Orientation Groundspeed Altitude Reporting Facility
EDT Latitude Longitude Course Direction KTS MPH feet Rate Location/Type
06:41PM 41.9047 -75.8805 180° South  Level Estimated
06:42PM 41.8037 -75.9150 194° South  Level FlightAware Approximate
06:43PM 41.7030 -75.8789 160° South  Level Estimated
06:44PM 41.6024 -75.8428 159° South  Level Estimated
06:45PM 41.5017 -75.8069 153° Southeast  Level Estimated
06:46PM 41.4010 -75.7711 161° South  Level Estimated
06:47PM 41.3074 -75.7099 154° Southeast  Level FlightAware Approximate
06:48PM 41.2063 -75.6762 162° South  Level Estimated
06:49PM 41.1096 -75.6247 158° South  Level FlightAware Approximate
06:50PM 41.0128 -75.5734 158° South  Level FlightAware Approximate
06:51PM 40.9111 -75.5433 163° South  Level Estimated
06:52PM 40.8132 -75.4962 160° South  Level FlightAware Approximate
06:53PM 40.7111 -75.4682 190° South  Level Estimated
06:54PM 40.6076 -75.4838 187° South  Level FlightAware Approximate
06:55PM 40.5066 -75.4501 187° South  Level Estimated
06:56PM 40.4055 -75.4165 190° South  Level Estimated
06:57PM 40.3184 -75.4914 213° Southwest  Level FlightAware Approximate
06:58PM 40.2226 -75.4374 143° Southeast  Level Estimated
06:59PM 40.1269 -75.3835 143° Southeast  Level Estimated
07:00PM 40.0242 -75.3742 143° Southeast  Level FlightAware Approximate
07:01PM 39.9418 -75.3042 159° South  Level FlightAware Approximate
07:02PM 39.8722 -75.2409 150° Southeast  Level Estimated
07:03PM 39.8722 -75.2409 150° Southeast  Level Estimated
07:04PM 39.8722 -75.2409 150° Southeast  Level Estimated
07:05PM 39.8722 -75.2409 150° Southeast  Level Estimated
07:05PM 40.6333 -75.6833 150° Southeast 253 291 7,800  Level Philadelphia TRACON
07:05PM 40.5833 -75.6667 166° South 276 318 7,100 -540 Descending Philadelphia TRACON
07:06PM 39.8722 -75.2409 150° Southeast  Level Estimated
07:06PM 40.5167 -75.6333 159° South 266 306 6,900  Level Philadelphia TRACON
07:07PM 39.8722 -75.2409 150° Southeast  Level Estimated
07:07PM 40.4333 -75.6167 171° South 273 314 5,900  Level Philadelphia TRACON
07:08PM 39.8722 -75.2409 150° Southeast  Level Estimated
07:08PM 40.3833 -75.5667 143° Southeast 248 285 5,000  Level Philadelphia TRACON
07:09PM 39.8722 -75.2409 150° Southeast  Level Estimated
07:09PM 40.3167 -75.5167 150° Southeast 227 261 5,000  Level Philadelphia TRACON
07:10PM 39.8722 -75.2409 150° Southeast  Level Estimated
07:10PM 40.2667 -75.4833 153° Southeast 242 278 4,000  Level Philadelphia TRACON
07:11PM 40.2000 -75.4333 150° Southeast 245 282 3,100 -540 Descending Philadelphia TRACON
07:12PM 40.1500 -75.4000 153° Southeast 211 243 3,000 -60 Descending Philadelphia TRACON
07:13PM 40.1000 -75.3500 143° Southeast 202 232 3,000  Level Philadelphia TRACON
07:14PM 40.0500 -75.3167 153° Southeast 190 219 3,000 -240 Level Philadelphia TRACON
07:16PM 40.0167 -75.3000 159° South 123 142 2,600 -540 Descending Philadelphia TRACON
07:17PM 39.9833 -75.2833 159° South 128 147 1,900 -720 Descending Philadelphia TRACON
07:18PM 39.9500 -75.2667 159° South 127 146 1,200 -660 Descending Philadelphia TRACON
07:19PM 39.9167 -75.2500 159° South 127 146 600 -660 Descending Philadelphia TRACON